Highland, MD (20777)

8:49 PM EDT on July 28, 2016 (GMT -0400)
Highland | | Change Station
Active Advisory: Flash Flood Watch

Elev 469 ft 39.18 °N, 76.96 °W | Updated 18 minutes ago

Overcast
Overcast
73.4 °F
Feels Like 73.4 °F
N
0.0
Wind Variable Wind from East
Gusts 1.0 mph

Today
High -- | Low -- °F
--% Chance of Precip.
Yesterday
High -- | Low -- °F
Precip. -- in
Pressure 29.93 in
Visibility 6.0 miles
Clouds Overcast 1000 ft
Dew Point 73 °F
Humidity 98%
Rainfall 0.71 in
Snow Depth Not available.
6:05 AM 8:23 PM
Waning Crescent, 27% visible
METAR KGAI 290035Z AUTO 00000KT 6SM OVC010 23/21 A2993 RMK AO1 LTG DSNT SW P0002
Pressure 29.93 in
Visibility 6.0 miles
Clouds Overcast 1000 ft
Dew Point 73 °F
Humidity 98%
Rainfall 0.71 in
Snow Depth Not available.
6:05 AM 8:23 PM
Waning Crescent, 27% visible
METAR KGAI 290035Z AUTO 00000KT 6SM OVC010 23/21 A2993 RMK AO1 LTG DSNT SW P0002

10-Day Weather Forecast

Almanac

Astronomy

Jul. 28, 2016 Rise Set
Actual Time
Civil Twilight
Nautical Twilight
Astronomical Twilight
Moon
Length of Visible Light
Length of Day
Tomorrow will be .
, % of the Moon is Illuminated

Today's Extremes

State Highs State Lows

Community

WunderPhotos

Upload Photos

1,928,240 photos uploaded!

WunderBlog® & News

Nearby

Air Quality

  Air Quality AQ Index Pollutant
Not available.

Snow Depth

Station Depth Elevation

Earthquake Activity

City Distance Mag. Time & Date
Minimum magnitude displayed is 2.5.

Coastal Water Temperatures

Place Temperature

Stations

Nearby Weather Stations

Station Location Temp. Windchill Dew Point Humidity Wind Precip. Elev Updated Type
                   

Watches & Warnings

Flash Flood Watch
Issued: 2:13 PM EDT Jul. 28, 2016 – National Weather Service

... Flash Flood Watch now in effect through Friday morning...

The Flash Flood Watch is now in effect for

* portions of central Maryland and northern Maryland... including
the following areas... in central Maryland... Anne Arundel and
central and southeast Howard. In northern Maryland... northern
Baltimore... northwest Harford... southeast Harford and southern
Baltimore.

* Through Friday morning

* an area of low pressure is expected to develop tonight over
southern Virginia and track northeast across northeast Maryland
and New Jersey Friday. Several rounds of showers and
thunderstorms developing this afternoon will continue into
Friday morning. Given ample moisture and instability... showers
and thunderstorms will be capable of producing torrential
downpours with rainfall rates of an inch or two per hour at
times. This may result in flash flooding of small streams...
creeks and urban areas.


Precautionary/preparedness actions...

A Flash Flood Watch means that conditions may develop that lead
to flash flooding. Flash flooding is a very dangerous situation.

You should monitor later forecasts and be prepared to take action
should flash flood warnings be issued.



Hts